Terminal Aerodrome Forecast
Issued by NWS

Home | Current Version | Previous Version | Text Only | Print | Product List | Glossary On
Versions: 1 2 3 4 5 6 7 8 9 10 11 12
000
FTUS43 KIND 210500
TAFLAF
TAF
KLAF 210612Z 2106/2206 19004KT P6SM SCT200
     FM211500 24012KT P6SM SCT050 BKN150
     FM212200 24008KT P6SM VCSH OVC050
     FM220300 26009KT 6SM -SHRA VCTS OVC025CB
      AMD LTD TO CLD VIS AND WIND TIL 211300=

USA.gov is the U.S. government's official web portal to all federal, state and local government web resources and services.